Murom, Russia
Current Conditions -  °F | °C
As of 2:30 PM on Thursday 23 Oct 2014 (Local Time) from UWGG Reporting Station
Light Snow Light Snow  
Wind Chill:   Ceiling: 1100
Heat Index: 19°   Visibility: 6mi
Dew Point: 10°   Wind: 9mph
Humidity: 68%   Direction: 300°WNW
Pressure: 30.09"   Gusts: 20mph
Location:  55.57°N, 42.04°E
Report Text: UWGG 231130Z 30004G09MPS 9000 -SN BKN011 M07/M12 Q1019 NOSIG36450239 RMK QFE757
Loading
Personal Weather Stations






























Interactive Weather Map
Tropical Storm Tracking
New forecast layout! Learn more

10-Day Weather Forecast

Advertisements
Track Severe Weather on mobile